Time;durP1;ratioP1;P1;durP2;ratioP2;P2;SDS_P1;SDS_P2;PMS_P1;PMS_P2;Temp;Humidity;BMP_temperature;BMP_pressure;BME280_temperature;BME280_humidity;BME280_pressure;Samples;Min_cycle;Max_cycle;Signal;HPM_P1;HPM_P2
2023/10/17 00:01:47;;;;;;;3.42;2.20;;;;;;;18.77;55.47;102256.59;5004658;28;20136;-39
2023/10/17 00:06:50;;;;;;;4.53;1.95;;;;;;;18.76;55.11;102268.34;5006630;28;20050;-39
2023/10/17 00:09:25;;;;;;;2.55;2.00;;;;;;;18.74;55.72;102263.94;5004082;28;20044;-39
2023/10/17 00:14:25;;;;;;;3.33;2.00;;;;;;;18.71;55.35;102263.34;5006019;28;20412;-39
2023/10/17 00:16:56;;;;;;;3.05;1.70;;;;;;;18.71;55.43;102253.44;5006402;28;20104;-39
2023/10/17 00:19:26;;;;;;;2.80;1.70;;;;;;;18.69;55.65;102247.34;5005660;28;20061;-39
2023/10/17 00:21:53;;;;;;;2.13;1.60;;;;;;;18.68;54.99;102240.22;5003938;28;20124;-39
2023/10/17 00:24:19;;;;;;;2.83;1.92;;;;;;;18.68;55.37;102236.69;5007250;28;20106;-39
2023/10/17 00:26:49;;;;;;;3.97;2.00;;;;;;;18.66;54.96;102236.84;5002171;28;20393;-39
2023/10/17 00:29:15;;;;;;;4.82;1.92;;;;;;;18.65;55.08;102243.19;5005617;28;20070;-39
2023/10/17 00:31:46;;;;;;;3.65;2.08;;;;;;;18.65;54.97;102237.81;5004901;28;20117;-39
2023/10/17 00:34:13;;;;;;;2.58;1.67;;;;;;;18.63;55.59;102236.22;5005177;28;20127;-39
2023/10/17 00:36:47;;;;;;;3.28;2.08;;;;;;;18.61;55.35;102236.31;5006052;28;20053;-39
2023/10/17 00:39:32;;;;;;;3.63;1.77;;;;;;;18.60;55.36;102236.47;5006150;28;20349;-39
2023/10/17 00:44:33;;;;;;;2.42;1.60;;;;;;;18.56;55.44;102233.16;5007078;28;20050;-39
2023/10/17 00:47:01;;;;;;;3.13;1.65;;;;;;;18.56;55.75;102235.00;5006232;28;20053;-39
2023/10/17 00:49:29;;;;;;;2.85;1.65;;;;;;;18.54;55.94;102223.53;5008293;28;20064;-39
2023/10/17 00:52:00;;;;;;;2.67;2.10;;;;;;;18.54;55.31;102226.22;5006080;28;20100;-38
2023/10/17 00:54:26;;;;;;;2.28;1.50;;;;;;;18.52;55.58;102218.28;5004406;28;20137;-39
2023/10/17 00:56:56;;;;;;;3.47;1.75;;;;;;;18.52;55.47;102223.66;5005336;28;20434;-38
2023/10/17 00:59:29;;;;;;;3.17;1.75;;;;;;;18.50;55.41;102220.25;5006706;28;20441;-39
2023/10/17 01:01:56;;;;;;;3.17;1.63;;;;;;;18.48;55.47;102223.03;5007734;28;20295;-39
2023/10/17 01:04:26;;;;;;;3.72;1.75;;;;;;;18.49;55.63;102226.56;5005192;28;20466;-39
2023/10/17 01:06:55;;;;;;;2.67;1.73;;;;;;;18.48;55.64;102222.19;5005094;28;20058;-39
2023/10/17 01:09:24;;;;;;;2.22;1.50;;;;;;;18.48;56.05;102219.50;5004649;28;20038;-39
2023/10/17 01:11:57;;;;;;;3.17;1.70;;;;;;;18.47;55.71;102215.97;5008218;28;20105;-40
2023/10/17 01:14:24;;;;;;;2.00;1.40;;;;;;;18.46;55.78;102208.03;5006222;28;20050;-38
2023/10/17 01:16:54;;;;;;;2.63;1.52;;;;;;;18.47;55.42;102215.13;5006176;28;20060;-38
2023/10/17 01:19:21;;;;;;;2.33;1.48;;;;;;;18.46;55.38;102213.41;5007617;28;20042;-39
2023/10/17 01:21:48;;;;;;;2.30;1.63;;;;;;;18.43;55.74;102206.44;5008267;28;20405;-39
2023/10/17 01:24:16;;;;;;;1.63;1.45;;;;;;;18.43;55.57;102213.66;5007516;28;20049;-39
2023/10/17 01:26:46;;;;;;;2.47;1.52;;;;;;;18.42;55.48;102206.59;5011140;28;20074;-39
2023/10/17 01:29:13;;;;;;;2.95;1.60;;;;;;;18.40;55.72;102206.69;5009356;28;20049;-39
2023/10/17 01:31:43;;;;;;;2.67;1.70;;;;;;;18.40;55.40;102204.00;5008989;28;20430;-39
2023/10/17 01:34:11;;;;;;;1.83;1.45;;;;;;;18.39;55.41;102202.31;5009948;28;20054;-39
2023/10/17 01:36:38;;;;;;;3.60;1.83;;;;;;;18.38;55.66;102197.06;5007962;28;20393;-39
2023/10/17 01:39:11;;;;;;;1.98;1.20;;;;;;;18.38;55.51;102199.75;5008493;28;20059;-39
2023/10/17 01:41:48;;;;;;;2.40;1.27;;;;;;;18.35;55.69;102195.47;5006521;28;20401;-39
2023/10/17 01:44:14;;;;;;;2.50;1.50;;;;;;;18.35;55.31;102191.94;5006490;28;20068;-39
2023/10/17 01:46:43;;;;;;;2.17;1.30;;;;;;;18.34;55.77;102187.56;5006025;28;20046;-39
2023/10/17 01:49:10;;;;;;;2.75;1.60;;;;;;;18.34;56.08;102190.25;5010119;28;20062;-39
2023/10/17 01:51:37;;;;;;;2.70;1.52;;;;;;;18.33;55.74;102183.13;5006159;28;20052;-39
2023/10/17 01:54:14;;;;;;;2.42;1.70;;;;;;;18.31;55.61;102183.28;5009257;28;20050;-39
2023/10/17 01:56:47;;;;;;;2.97;1.70;;;;;;;18.32;55.62;102181.44;5005564;28;20060;-39
2023/10/17 01:59:25;;;;;;;2.35;1.42;;;;;;;18.30;55.81;102170.00;5009108;28;20355;-39
2023/10/17 02:01:56;;;;;;;2.33;1.40;;;;;;;18.30;55.94;102178.03;5005852;28;20060;-39
2023/10/17 02:04:24;;;;;;;1.58;1.02;;;;;;;18.29;55.56;102173.63;5010888;28;20404;-39
2023/10/17 02:06:52;;;;;;;2.53;1.58;;;;;;;18.27;55.51;102173.75;5006623;28;20107;-39
2023/10/17 02:09:24;;;;;;;2.33;1.60;;;;;;;18.26;55.54;102174.75;5010146;28;20042;-39
2023/10/17 02:11:54;;;;;;;2.25;1.40;;;;;;;18.25;55.86;102173.00;5009857;28;20115;-40
2023/10/17 02:14:25;;;;;;;2.05;1.30;;;;;;;18.24;55.76;102169.47;5010885;28;20312;-40
2023/10/17 02:16:55;;;;;;;2.22;1.27;;;;;;;18.23;55.72;102166.94;5009850;28;20050;-39
2023/10/17 02:19:23;;;;;;;1.60;1.15;;;;;;;18.23;55.93;102170.47;5007001;28;20060;-39
2023/10/17 02:21:50;;;;;;;2.08;1.35;;;;;;;18.22;55.79;102165.22;5008750;28;20506;-39
2023/10/17 02:24:20;;;;;;;2.00;1.40;;;;;;;18.20;55.70;102168.03;5005543;28;20046;-39
2023/10/17 02:26:56;;;;;;;2.35;1.38;;;;;;;18.20;56.08;102169.84;5007612;28;20107;-39
2023/10/17 02:29:26;;;;;;;2.38;1.40;;;;;;;18.18;55.29;102169.13;5008395;28;20042;-39
2023/10/17 02:31:54;;;;;;;2.50;1.42;;;;;;;18.18;55.90;102169.13;5010134;28;20133;-39
2023/10/17 02:34:22;;;;;;;3.05;1.20;;;;;;;18.17;55.97;102160.25;5006640;28;20049;-39
2023/10/17 02:36:50;;;;;;;1.95;1.20;;;;;;;18.16;55.56;102165.72;5007611;28;20060;-40
2023/10/17 02:39:16;;;;;;;2.28;1.23;;;;;;;18.16;55.70;102161.19;5005380;28;20077;-40
2023/10/17 02:41:46;;;;;;;2.10;1.50;;;;;;;18.15;56.18;102164.84;5006274;28;20140;-39
2023/10/17 02:44:22;;;;;;;2.08;1.02;;;;;;;18.15;55.64;102167.53;5005486;28;20341;-39
2023/10/17 02:46:48;;;;;;;3.17;1.42;;;;;;;18.13;55.48;102165.94;5007138;28;20429;-40
2023/10/17 02:49:16;;;;;;;2.08;1.10;;;;;;;18.13;56.09;102163.25;5009906;28;20736;-39
2023/10/17 02:51:43;;;;;;;2.13;1.60;;;;;;;18.12;55.93;102162.41;5005029;28;20053;-40
2023/10/17 02:54:14;;;;;;;2.58;1.30;;;;;;;18.12;56.05;102174.97;5008525;28;20132;-40
2023/10/17 02:56:51;;;;;;;1.77;1.15;;;;;;;18.11;55.87;102171.44;5004489;28;20038;-39
2023/10/17 02:59:18;;;;;;;2.25;1.45;;;;;;;18.12;55.89;102167.78;5007426;28;20071;-39
2023/10/17 03:01:45;;;;;;;1.92;1.23;;;;;;;18.10;55.79;102160.84;5007841;28;20065;-39
2023/10/17 03:04:13;;;;;;;1.75;1.40;;;;;;;18.10;55.79;102175.13;5009652;28;20505;-39
2023/10/17 03:06:44;;;;;;;1.73;1.38;;;;;;;18.08;56.17;102160.94;5006546;28;20131;-40
2023/10/17 03:14:39;;;;;;;2.03;1.45;;;;;;;18.06;56.39;102159.38;5003673;28;20386;-39
2023/10/17 03:17:06;;;;;;;1.60;1.27;;;;;;;18.06;56.31;102160.22;5005274;28;20502;-39
2023/10/17 03:19:34;;;;;;;1.83;1.17;;;;;;;18.05;55.94;102152.28;5007946;28;20096;-39
2023/10/17 03:22:36;;;;;;;2.00;1.33;;;;;;;18.04;56.17;102156.81;5006403;28;20042;-39
2023/10/17 03:27:48;;;;;;;1.52;1.30;;;;;;;18.03;56.34;102163.16;5007386;28;20081;-39
2023/10/17 03:30:19;;;;;;;2.85;1.60;;;;;;;18.02;56.14;102164.13;5005431;28;20144;-39
2023/10/17 03:33:03;;;;;;;2.33;1.50;;;;;;;18.00;56.15;102166.91;5007181;28;20464;-39
2023/10/17 03:35:35;;;;;;;1.58;1.42;;;;;;;18.00;56.67;102166.06;5007482;28;20346;-39
2023/10/17 03:38:04;;;;;;;1.63;1.30;;;;;;;17.98;56.10;102155.47;5006703;28;20096;-39
2023/10/17 03:40:40;;;;;;;1.75;1.30;;;;;;;17.99;56.07;102175.09;5002133;28;20046;-40
2023/10/17 03:43:15;;;;;;;1.83;1.08;;;;;;;17.97;56.47;102169.00;5004716;28;20049;-39
2023/10/17 03:45:52;;;;;;;1.10;1.00;;;;;;;17.96;55.74;102170.81;5004220;28;20047;-39
2023/10/17 03:48:21;;;;;;;4.05;1.58;;;;;;;17.95;56.14;102171.78;5005914;28;20422;-39
2023/10/17 03:53:30;;;;;;;1.27;0.85;;;;;;;17.93;56.14;102184.50;5005967;28;20520;-38
2023/10/17 03:56:01;;;;;;;2.17;1.15;;;;;;;17.93;56.65;102186.28;5007263;28;20373;-39
2023/10/17 03:58:43;;;;;;;1.65;1.25;;;;;;;17.92;56.18;102189.97;5002047;28;20089;-40
2023/10/17 04:01:11;;;;;;;1.55;1.00;;;;;;;17.92;56.44;102196.19;5006394;28;20433;-39
2023/10/17 04:03:37;;;;;;;2.08;1.38;;;;;;;17.91;56.07;102190.94;5006525;28;20131;-39
2023/10/17 04:08:37;;;;;;;3.05;0.95;;;;;;;17.91;56.41;102196.31;5008408;28;20145;-39
2023/10/17 04:13:55;;;;;;;2.42;1.40;;;;;;;17.90;56.09;102202.66;5006099;28;20046;-39
2023/10/17 04:16:44;;;;;;;1.75;1.23;;;;;;;17.88;56.17;102205.44;5002497;28;20115;-39
2023/10/17 04:19:17;;;;;;;2.78;1.40;;;;;;;17.88;55.87;102208.13;5001977;28;20044;-39
2023/10/17 04:22:07;;;;;;;2.70;1.20;;;;;;;17.87;56.33;102197.53;4998966;28;20474;-39
2023/10/17 04:24:48;;;;;;;2.33;1.35;;;;;;;17.87;56.44;102200.19;4999669;28;20046;-38
2023/10/17 04:27:31;;;;;;;1.30;1.00;;;;;;;17.86;56.09;102193.13;5003031;28;20053;-39
2023/10/17 04:29:58;;;;;;;3.72;1.40;;;;;;;17.84;56.32;102193.25;5003073;28;20038;-39
2023/10/17 04:32:29;;;;;;;3.00;1.25;;;;;;;17.85;56.11;102196.78;5002194;28;20365;-39
2023/10/17 04:34:56;;;;;;;1.17;0.90;;;;;;;17.85;55.93;102194.09;5000194;28;20401;-40
2023/10/17 04:37:32;;;;;;;1.48;1.27;;;;;;;17.84;56.26;102192.38;5004428;28;20050;-39
2023/10/17 04:42:56;;;;;;;2.50;1.23;;;;;;;17.83;56.20;102193.38;5009670;28;20051;-39
2023/10/17 04:45:28;;;;;;;1.63;1.02;;;;;;;17.83;56.57;102198.72;5001488;28;20101;-39
2023/10/17 04:48:11;;;;;;;2.45;1.40;;;;;;;17.82;56.14;102194.34;5002588;28;20073;-39
2023/10/17 04:50:45;;;;;;;1.73;0.93;;;;;;;17.81;56.12;102192.63;5001198;28;20050;-39
2023/10/17 04:53:28;;;;;;;2.28;1.20;;;;;;;17.81;56.12;102197.97;5001793;28;20052;-39
2023/10/17 04:56:42;;;;;;;2.37;1.30;;;;;;;17.79;56.17;102190.06;5003781;28;21317;-39
2023/10/17 04:58:53;;;;;;;1.25;1.00;;;;;;;17.79;56.21;102192.75;5005040;28;20137;-39
2023/10/17 05:01:35;;;;;;;2.30;1.17;;;;;;;17.78;56.30;102187.50;5005200;28;20067;-39
2023/10/17 06:18:59;;;;;;;1.83;1.17;;;;;;;18.77;54.23;102149.16;5006506;28;20046;-39
2023/10/17 06:21:35;;;;;;;2.40;1.30;;;;;;;18.73;54.13;102151.25;5021853;28;20046;-39
2023/10/17 06:26:47;;;;;;;1.20;1.00;;;;;;;18.64;54.25;102158.19;4999194;28;20052;-39
2023/10/17 06:34:19;;;;;;;1.50;1.15;;;;;;;18.51;54.57;102168.25;5001703;28;20046;-38
2023/10/17 06:36:50;;;;;;;2.95;1.27;;;;;;;18.47;54.34;102172.16;4998096;28;20492;-39
2023/10/17 06:39:18;;;;;;;2.67;1.25;;;;;;;18.43;54.47;102174.22;5004139;28;20121;-39
2023/10/17 06:41:46;;;;;;;3.10;1.10;;;;;;;18.40;54.86;102170.94;5005008;28;20104;-39
2023/10/17 06:44:21;;;;;;;1.33;1.00;;;;;;;18.35;54.64;102174.00;5003798;28;20395;-39
2023/10/17 06:47:08;;;;;;;1.55;1.08;;;;;;;18.33;54.41;102177.78;5001638;28;20077;-39
2023/10/17 06:54:43;;;;;;;1.63;1.10;;;;;;;18.17;55.11;102175.47;4996659;28;20100;-39
2023/10/17 06:57:19;;;;;;;1.75;1.02;;;;;;;18.12;55.02;102178.50;5000872;28;20104;-39
2023/10/17 06:59:50;;;;;;;1.92;1.20;;;;;;;18.06;55.07;102176.31;5001210;28;20061;-39
2023/10/17 07:02:41;;;;;;;1.55;1.25;;;;;;;18.03;55.06;102170.34;5008522;28;20453;-39
2023/10/17 07:05:08;;;;;;;1.67;1.00;;;;;;;17.98;55.52;102171.56;5006364;28;20133;-39
2023/10/17 07:07:45;;;;;;;1.85;1.20;;;;;;;17.92;55.47;102166.66;5002795;28;20056;-38
2023/10/17 07:10:23;;;;;;;2.42;1.70;;;;;;;17.87;55.55;102168.88;5005665;28;20049;-39
2023/10/17 07:13:28;;;;;;;1.70;1.25;;;;;;;17.80;55.92;102178.34;5006209;28;20061;-39
2023/10/17 07:15:55;;;;;;;;;;;;;;;17.76;56.00;102172.38;5009076;28;20052;-38
2023/10/17 07:18:44;;;;;;;1.23;1.10;;;;;;;17.78;55.94;102169.59;5017314;28;19921;-39
2023/10/17 07:23:43;;;;;;;2.28;1.25;;;;;;;17.70;56.51;102169.31;5005651;28;20422;-39
2023/10/17 07:26:12;;;;;;;2.38;1.23;;;;;;;17.67;56.19;102167.72;5003935;28;20054;-38
2023/10/17 07:28:42;;;;;;;2.35;1.48;;;;;;;17.66;56.35;102168.69;5006254;28;20491;-39
2023/10/17 07:31:12;;;;;;;1.92;1.30;;;;;;;17.65;56.33;102169.66;5003253;28;20046;-39
2023/10/17 07:33:43;;;;;;;3.28;1.60;;;;;;;17.64;56.18;102165.25;5001319;28;20046;-39
2023/10/17 07:36:15;;;;;;;2.95;1.30;;;;;;;17.64;56.29;102170.63;5001556;28;20072;-39
2023/10/17 07:38:45;;;;;;;3.00;1.38;;;;;;;17.65;56.40;102166.13;5001660;28;20606;-39
2023/10/17 07:41:13;;;;;;;2.00;1.20;;;;;;;17.65;56.33;102166.97;5003033;28;20046;-39
2023/10/17 07:43:46;;;;;;;2.35;1.58;;;;;;;17.65;56.39;102160.78;5008997;28;20140;-38
2023/10/17 07:46:18;;;;;;;2.28;1.45;;;;;;;17.66;56.08;102170.50;5006765;28;20042;-39
2023/10/17 07:48:51;;;;;;;2.90;1.38;;;;;;;17.67;56.42;102165.03;5007214;28;20457;-39
2023/10/17 07:51:18;;;;;;;4.00;1.63;;;;;;;17.67;56.28;102165.03;5008452;28;20070;-39
2023/10/17 07:53:48;;;;;;;2.42;1.52;;;;;;;17.68;56.62;102164.03;5003997;28;20477;-40
2023/10/17 07:56:23;;;;;;;2.03;1.77;;;;;;;17.70;56.23;102161.25;5001712;28;20081;-39
2023/10/17 07:58:57;;;;;;;4.60;1.75;;;;;;;17.71;56.30;102158.44;5006247;28;20050;-39
2023/10/17 08:01:38;;;;;;;2.22;1.20;;;;;;;17.73;56.29;102161.88;5001882;28;20505;-39
2023/10/17 08:07:03;;;;;;;2.88;1.65;;;;;;;17.75;56.54;102151.06;4997085;28;20046;-39
2023/10/17 08:09:36;;;;;;;2.47;1.42;;;;;;;17.75;56.14;102154.59;5001249;28;20088;-39
2023/10/17 08:12:08;;;;;;;3.28;1.88;;;;;;;17.76;56.28;102148.25;5000329;28;20124;-39
2023/10/17 08:14:41;;;;;;;2.58;1.58;;;;;;;17.78;56.26;102156.19;5001839;28;20051;-39
2023/10/17 08:17:09;;;;;;;2.75;1.50;;;;;;;17.78;56.34;102147.28;4998176;28;20434;-39
2023/10/17 08:22:25;;;;;;;2.33;1.60;;;;;;;17.80;56.12;102145.31;5003347;28;20069;-39
2023/10/17 08:24:53;;;;;;;2.25;1.42;;;;;;;17.81;55.99;102150.59;5004193;28;20054;-39
2023/10/17 08:32:39;;;;;;;3.83;1.88;;;;;;;17.84;56.56;102146.78;5002639;28;20374;-39
2023/10/17 08:35:20;;;;;;;4.25;1.80;;;;;;;17.84;56.69;102154.84;5004134;28;20630;-39
2023/10/17 08:37:47;;;;;;;2.42;1.40;;;;;;;17.84;56.72;102162.88;5002106;28;20054;-39
2023/10/17 08:40:31;;;;;;;3.13;1.65;;;;;;;17.86;56.43;102158.28;5003296;28;20085;-39
2023/10/17 08:43:06;;;;;;;2.97;1.75;;;;;;;17.89;55.93;102158.88;5003851;28;20046;-39
2023/10/17 08:45:37;;;;;;;5.45;2.15;;;;;;;17.95;56.29;102163.75;5001540;28;20053;-39
2023/10/17 08:48:09;;;;;;;2.72;1.55;;;;;;;18.05;56.16;102165.69;4999113;28;20054;-38
2023/10/17 08:50:39;;;;;;;3.88;1.67;;;;;;;18.17;55.94;102164.72;5005035;28;20038;-39
2023/10/17 08:53:42;;;;;;;2.75;1.70;;;;;;;18.28;56.02;102170.09;5004327;28;20050;-39
2023/10/17 08:56:02;;;;;;;3.35;1.95;;;;;;;18.42;55.46;102174.38;5003830;28;20045;-39
2023/10/17 08:58:36;;;;;;;2.67;1.65;;;;;;;18.50;55.59;102175.44;5000923;28;20524;-39
2023/10/17 09:01:14;;;;;;;4.93;1.70;;;;;;;18.60;55.28;102178.22;5002842;28;20046;-39
2023/10/17 09:03:43;;;;;;;3.47;1.65;;;;;;;18.69;55.23;102182.88;4998685;28;20054;-39
2023/10/17 09:09:17;;;;;;;2.00;1.35;;;;;;;18.82;55.09;102182.75;5001343;28;20049;-39
2023/10/17 09:12:01;;;;;;;2.65;1.60;;;;;;;18.87;55.29;102182.38;5001288;28;20342;-39
2023/10/17 09:14:36;;;;;;;2.38;1.77;;;;;;;18.89;55.81;102172.34;5001700;28;20457;-39
2023/10/17 09:17:39;;;;;;;3.22;1.83;;;;;;;18.91;55.33;102181.13;5003067;28;20041;-39
2023/10/17 09:20:06;;;;;;;5.10;1.92;;;;;;;18.94;55.92;102181.72;5002504;28;20441;-39
2023/10/17 09:22:33;;;;;;;3.88;1.70;;;;;;;18.95;55.92;102178.06;5003703;28;20391;-39
2023/10/17 09:25:15;;;;;;;4.88;2.00;;;;;;;18.97;56.20;102178.81;5007529;28;20128;-39
2023/10/17 09:27:44;;;;;;;4.93;1.50;;;;;;;19.03;55.50;102173.88;5005722;28;20049;-39
2023/10/17 09:30:11;;;;;;;5.20;1.70;;;;;;;19.07;55.78;102164.59;5002845;28;20053;-39
2023/10/17 09:32:40;;;;;;;3.75;1.60;;;;;;;19.12;55.86;102173.13;4998451;28;20446;-39
2023/10/17 09:35:11;;;;;;;4.05;1.75;;;;;;;19.17;55.51;102168.19;5000225;28;20129;-39
2023/10/17 09:37:41;;;;;;;2.17;1.40;;;;;;;19.22;55.58;102177.59;5000639;28;20417;-39
2023/10/17 09:40:13;;;;;;;3.92;1.77;;;;;;;19.29;54.97;102175.22;4998619;28;20413;-39
2023/10/17 09:42:44;;;;;;;3.25;1.35;;;;;;;19.35;55.41;102176.56;5007691;28;20131;-39
2023/10/17 09:45:13;;;;;;;3.55;1.80;;;;;;;19.39;55.14;102170.78;5001587;28;20042;-39
2023/10/17 09:48:04;;;;;;;3.53;1.50;;;;;;;19.45;54.81;102172.94;5005706;28;20050;-39
2023/10/17 09:50:37;;;;;;;3.60;1.50;;;;;;;19.51;54.63;102171.59;5005331;28;20038;-38
2023/10/17 09:53:14;;;;;;;3.80;1.55;;;;;;;19.55;54.80;102170.34;5004164;28;20108;-38
2023/10/17 09:55:48;;;;;;;5.40;1.70;;;;;;;19.60;54.68;102178.84;5007370;28;20507;-38
2023/10/17 09:58:28;;;;;;;4.15;1.67;;;;;;;19.64;55.09;102179.47;5009168;28;20051;-38
2023/10/17 10:01:06;;;;;;;2.38;1.40;;;;;;;19.69;54.24;102163.78;5005528;28;20046;-40
2023/10/17 10:03:36;;;;;;;2.42;1.70;;;;;;;19.73;54.81;102168.78;5007002;28;20141;-38
2023/10/17 10:06:30;;;;;;;5.40;1.80;;;;;;;19.76;54.10;102159.59;5005774;28;20496;-39
2023/10/17 10:09:06;;;;;;;3.25;1.50;;;;;;;19.81;54.19;102159.19;5007102;28;20061;-39
2023/10/17 10:11:48;;;;;;;3.60;1.70;;;;;;;19.83;54.24;102150.00;5001160;28;20046;-39
2023/10/17 10:14:39;;;;;;;2.28;1.48;;;;;;;19.86;54.24;102146.19;5000892;28;20054;-40
2023/10/17 10:17:08;;;;;;;3.72;1.95;;;;;;;19.93;53.93;102147.34;5004420;28;20065;-40
2023/10/17 10:19:40;;;;;;;4.35;1.50;;;;;;;19.93;54.52;102144.66;5005297;28;20463;-40
2023/10/17 10:22:10;;;;;;;3.58;1.60;;;;;;;19.95;53.63;102138.16;5001111;28;20891;-39
2023/10/17 10:24:37;;;;;;;3.63;1.77;;;;;;;19.99;53.74;102136.06;5003671;28;20367;-40
2023/10/17 10:27:10;;;;;;;4.28;1.65;;;;;;;20.00;53.92;102132.38;4999029;28;20435;-40
2023/10/17 10:29:40;;;;;;;4.22;1.90;;;;;;;20.02;54.02;102127.72;5000305;28;20133;-40
2023/10/17 10:32:25;;;;;;;2.10;1.45;;;;;;;20.03;53.41;102129.44;5023452;28;20046;-40
2023/10/17 10:34:53;;;;;;;1.50;1.20;;;;;;;20.06;53.76;102136.34;5007760;28;20172;-40
2023/10/17 10:37:20;;;;;;;3.75;1.38;;;;;;;20.06;54.02;102126.47;5003739;28;20576;-39
2023/10/17 10:40:26;;;;;;;2.78;1.40;;;;;;;20.07;53.19;102127.31;5000995;28;20046;-39
2023/10/17 10:42:54;;;;;;;2.72;1.50;;;;;;;20.09;53.09;102126.19;5005340;28;20107;-40
2023/10/17 10:45:40;;;;;;;3.60;1.23;;;;;;;20.09;53.85;102109.19;5004168;28;20086;-40
2023/10/17 10:48:15;;;;;;;3.85;1.23;;;;;;;20.08;53.15;102104.78;5005594;28;20335;-41
2023/10/17 10:50:44;;;;;;;2.85;1.33;;;;;;;20.08;53.15;102102.09;5005159;28;20046;-40
2023/10/17 10:53:28;;;;;;;4.82;1.77;;;;;;;20.07;53.23;102103.94;5001244;28;20058;-41
2023/10/17 10:56:00;;;;;;;2.83;1.58;;;;;;;20.07;53.22;102103.94;5001851;28;20100;-40
2023/10/17 10:58:35;;;;;;;3.63;1.52;;;;;;;20.06;53.18;102099.56;5006301;28;20060;-40
2023/10/17 11:01:07;;;;;;;4.00;1.40;;;;;;;20.06;52.84;102102.25;5007924;28;20076;-40
2023/10/17 11:03:42;;;;;;;5.85;1.30;;;;;;;20.06;53.50;102093.28;5009131;28;20568;-40
2023/10/17 11:06:09;;;;;;;2.45;1.20;;;;;;;20.07;53.50;102109.31;5009122;28;20077;-40
2023/10/17 11:08:45;;;;;;;4.47;1.23;;;;;;;20.05;53.19;102110.44;5006856;28;20047;-39
2023/10/17 11:11:19;;;;;;;1.83;1.15;;;;;;;20.06;52.89;102110.31;5006527;28;20133;-40
2023/10/17 11:13:51;;;;;;;4.88;1.38;;;;;;;20.06;53.15;102099.56;5003650;28;20053;-40
2023/10/17 11:16:24;;;;;;;3.42;1.40;;;;;;;20.06;53.51;102104.06;5007294;28;20041;-40
2023/10/17 11:18:52;;;;;;;5.10;1.60;;;;;;;20.06;53.38;102087.91;5003007;28;20145;-40
2023/10/17 11:21:21;;;;;;;3.67;1.55;;;;;;;20.05;52.74;102092.44;5002869;28;20507;-40
2023/10/17 11:23:59;;;;;;;3.75;1.40;;;;;;;20.06;53.19;102095.97;5001788;28;20057;-40
2023/10/17 11:26:29;;;;;;;2.45;0.93;;;;;;;20.05;52.84;102095.13;5007115;28;20145;-40
2023/10/17 11:28:57;;;;;;;4.05;1.52;;;;;;;20.06;53.26;102086.09;4999981;28;20127;-40
2023/10/17 11:31:26;;;;;;;5.43;1.35;;;;;;;20.07;52.95;102078.88;5001704;28;20046;-40
2023/10/17 11:33:52;;;;;;;4.55;1.30;;;;;;;20.06;53.37;102069.94;5000386;28;20053;-40
2023/10/17 11:36:22;;;;;;;3.10;1.27;;;;;;;20.07;52.72;102068.94;4997747;28;20072;-40
2023/10/17 11:38:56;;;;;;;2.00;1.05;;;;;;;20.08;52.68;102056.34;5000580;28;20065;-39
2023/10/17 11:41:46;;;;;;;1.83;1.10;;;;;;;20.10;52.75;102059.72;5003475;28;20038;-39
2023/10/17 11:44:10;;;;;;;4.78;1.52;;;;;;;20.11;52.73;102054.22;4998117;28;20104;-40
2023/10/17 11:46:48;;;;;;;3.28;1.30;;;;;;;20.12;52.95;102055.06;5000545;28;20084;-40
2023/10/17 11:49:26;;;;;;;2.05;1.23;;;;;;;20.13;52.70;102041.47;5002552;28;20362;-40
2023/10/17 11:52:15;;;;;;;2.47;0.95;;;;;;;20.14;53.13;102043.19;5001472;28;20085;-40
2023/10/17 11:55:03;;;;;;;2.42;1.00;;;;;;;20.15;52.53;102042.19;5003467;28;20525;-39
2023/10/17 11:57:33;;;;;;;1.50;1.05;;;;;;;20.18;53.19;102043.75;5005090;28;20041;-40
2023/10/17 12:00:19;;;;;;;1.63;1.13;;;;;;;20.18;53.00;102036.53;5002457;28;20050;-40
2023/10/17 12:02:48;;;;;;;3.33;1.33;;;;;;;20.20;52.84;102047.16;5005887;28;20061;-40
2023/10/17 12:05:19;;;;;;;1.83;1.15;;;;;;;20.21;52.44;102043.47;5001252;28;20073;-39
2023/10/17 12:07:54;;;;;;;1.88;1.20;;;;;;;20.21;52.34;102044.31;5002144;28;20115;-39
2023/10/17 12:10:21;;;;;;;1.70;1.05;;;;;;;20.22;52.52;102034.41;5006937;28;20127;-40
2023/10/17 12:12:52;;;;;;;2.03;1.05;;;;;;;20.24;52.70;102026.19;5005987;28;20081;-40
2023/10/17 12:15:22;;;;;;;2.58;1.08;;;;;;;20.24;52.80;102021.66;5004648;28;20493;-40
2023/10/17 12:17:49;;;;;;;4.03;0.95;;;;;;;20.24;52.40;102021.66;5002516;28;20133;-42
2023/10/17 12:20:17;;;;;;;1.85;1.05;;;;;;;20.26;53.00;102013.44;4997665;28;20075;-39
2023/10/17 12:22:43;;;;;;;1.88;1.00;;;;;;;20.26;53.00;102003.53;5001689;28;20542;-39
2023/10/17 12:25:10;;;;;;;2.50;0.98;;;;;;;20.27;52.48;101999.00;5000788;28;20081;-39
2023/10/17 12:27:39;;;;;;;2.20;0.90;;;;;;;20.27;53.12;101989.09;5004896;28;20052;-40
2023/10/17 12:30:10;;;;;;;4.70;1.88;;;;;;;20.29;52.66;101994.31;5001201;28;20069;-40
2023/10/17 12:32:37;;;;;;;2.10;0.95;;;;;;;20.30;52.27;101991.50;5002589;28;20434;-40
2023/10/17 12:35:07;;;;;;;4.18;1.30;;;;;;;20.32;53.01;101980.59;5003550;28;20847;-40
2023/10/17 12:37:43;;;;;;;2.72;1.00;;;;;;;20.34;52.69;101983.97;5002865;28;20046;-40
2023/10/17 12:40:18;;;;;;;5.22;1.08;;;;;;;20.35;52.61;101983.84;5001718;28;20441;-40
2023/10/17 12:42:49;;;;;;;4.43;1.23;;;;;;;20.38;52.24;101971.91;5007146;28;20058;-39
2023/10/17 12:45:17;;;;;;;6.50;1.05;;;;;;;20.40;52.59;101965.41;5005459;28;20481;-40
2023/10/17 12:47:45;;;;;;;3.13;1.05;;;;;;;20.42;52.76;101962.56;5003377;28;20149;-40
2023/10/17 12:50:13;;;;;;;2.70;0.80;;;;;;;20.45;52.87;101962.28;5000474;28;20129;-40
2023/10/17 12:52:39;;;;;;;4.78;1.00;;;;;;;20.46;51.93;101961.28;4996981;28;20064;-40
2023/10/17 12:55:11;;;;;;;2.05;1.20;;;;;;;20.48;52.36;101959.31;5000516;28;20096;-40
2023/10/17 12:57:39;;;;;;;1.90;0.90;;;;;;;20.50;52.16;101951.97;4999663;28;20062;-40
2023/10/17 13:00:09;;;;;;;3.83;0.82;;;;;;;20.52;52.72;101962.63;5002645;28;20080;-40
2023/10/17 13:02:38;;;;;;;4.80;1.40;;;;;;;20.54;52.14;101963.31;4999009;28;20061;-40
2023/10/17 13:05:10;;;;;;;4.07;0.90;;;;;;;20.55;51.87;101952.41;5003345;28;20057;-41
2023/10/17 13:07:38;;;;;;;1.42;0.85;;;;;;;20.57;52.13;101939.63;4998842;28;20049;-40
2023/10/17 13:10:07;;;;;;;4.13;1.08;;;;;;;20.59;51.88;101934.13;4996061;28;20103;-40
2023/10/17 13:12:34;;;;;;;3.80;1.10;;;;;;;20.61;52.45;101937.50;5002673;28;20120;-40
2023/10/17 13:15:01;;;;;;;3.42;1.20;;;;;;;20.61;51.71;101932.97;5002816;28;20041;-40
2023/10/17 13:17:28;;;;;;;2.08;1.00;;;;;;;20.63;51.93;101925.59;5000769;28;20057;-40
2023/10/17 13:19:57;;;;;;;5.82;1.10;;;;;;;20.63;51.96;101916.66;5001950;28;20046;-40
2023/10/17 13:22:24;;;;;;;3.95;0.88;;;;;;;20.64;51.99;101919.22;5000669;28;20035;-40
2023/10/17 13:24:51;;;;;;;1.58;1.05;;;;;;;20.64;52.30;101916.50;5003383;28;20305;-40
2023/10/17 13:27:18;;;;;;;3.28;1.38;;;;;;;20.65;52.02;101911.97;5003641;28;20389;-40
2023/10/17 13:29:47;;;;;;;1.75;1.13;;;;;;;20.65;52.17;101918.22;5005515;28;20077;-40
2023/10/17 13:32:14;;;;;;;1.45;0.80;;;;;;;20.66;51.67;101933.41;5007215;28;20081;-40
2023/10/17 13:34:41;;;;;;;2.58;1.13;;;;;;;20.65;51.54;101928.97;5008505;28;20053;-41
2023/10/17 13:37:11;;;;;;;3.20;1.20;;;;;;;20.65;51.44;101911.97;5006639;28;20050;-40
2023/10/17 13:39:38;;;;;;;1.85;0.93;;;;;;;20.65;51.59;101907.44;5010900;28;20058;-40
2023/10/17 13:42:05;;;;;;;4.25;0.82;;;;;;;20.64;51.67;101911.13;5004536;28;20370;-40
2023/10/17 13:44:34;;;;;;;4.65;1.48;;;;;;;20.64;51.72;101911.13;5005366;28;20334;-40
2023/10/17 13:47:00;;;;;;;3.58;1.42;;;;;;;20.64;51.24;101899.50;5005686;28;20053;-40
2023/10/17 13:49:29;;;;;;;2.40;1.25;;;;;;;20.63;51.88;101898.66;5000507;28;20507;-40
2023/10/17 13:51:58;;;;;;;3.83;1.20;;;;;;;20.64;51.71;101900.34;5004546;28;20366;-41
2023/10/17 13:54:34;;;;;;;3.97;1.20;;;;;;;20.63;51.29;101887.88;5003500;28;20450;-41
2023/10/17 13:57:03;;;;;;;1.67;0.80;;;;;;;20.64;51.41;101888.72;5003301;28;20057;-40
2023/10/17 13:59:53;;;;;;;1.88;0.90;;;;;;;20.63;51.54;101890.56;5006136;28;20137;-40